首页
METAR-TAF:

METAR-TAF

机场 :

Edinburg, 得克萨斯州, 美国

纬度: 26-26-31N, 经度: 098-07-46W, 海拔: 24米

当前天气观测

该预报发布于25分钟前的00:35 UTC
风速14节,风向东转东南,有时为20节阵风
温度 32°C
湿度 59%
气压 1006 hPa
能見度: 14.5公里
天空无云

METAR: KEBG 210035Z AUTO 12014G20KT 9SM CLR 32/23 A2972 RMK AO2

时间: 20:00 (01:00 UTC)


TAF: 丢失

超过4000个机场的气象观测和天气预报(METAR&TAF报告)。

可查询的气象台以黄色和红色小点在地图上表示。

将鼠标移到小点上方,可查看气象台名称。

然后点击查看天气观测和预报。

如需切换地图:点击带黑十字的绿色按钮放大地图;点击带横线的绿色按钮缩小地图;或者点击绿色箭头查看邻近地区的地图。


METAR-TAF: